| Date | Time | Temp. (oF) | Dew Point (oF) | Rel. Hum. (%) | Press. (in.) | Wind Dir. | Wind Speed (mph) | Hourly Rainfall (in.) |
|
|---|---|---|---|---|---|---|---|---|---|
| 1 | 01/30 | 00:00 | 33 | 25 | 74 | 30.09 | ESE | 2 | 0.00 |
| 2 | 01/29 | 23:00 | 33 | 25 | 73 | 30.12 | E | 5 | 0.00 |
| 3 | 01/29 | 22:00 | 32 | 24 | 73 | 30.15 | E | 1 | 0.00 |
| 4 | 01/29 | 21:00 | 32 | 23 | 72 | 30.16 | E | 2 | 0.00 |
| 5 | 01/29 | 20:00 | 33 | 24 | 71 | 30.18 | E | 4 | 0.00 |
| 6 | 01/29 | 19:00 | 34 | 24 | 67 | 30.20 | SSE | 2 | 0.00 |
| 7 | 01/29 | 18:00 | 35 | 24 | 64 | 30.21 | SE | 1 | 0.00 |
| 8 | 01/29 | 17:00 | 36 | 24 | 62 | 30.24 | S | 6 | 0.00 |
| 9 | 01/29 | 16:00 | 37 | 23 | 57 | 30.23 | SE | 2 | 0.00 |
| 10 | 01/29 | 15:00 | 38 | 23 | 55 | 30.23 | SSE | 2 | 0.00 |
| 11 | 01/29 | 14:00 | 38 | 22 | 53 | 30.24 | SSW | 7 | 0.00 |
| 12 | 01/29 | 13:00 | 37 | 21 | 54 | 30.27 | SSW | 5 | 0.00 |
| 13 | 01/29 | 12:00 | 35 | 22 | 59 | 30.30 | SSW | 2 | 0.00 |
| 14 | 01/29 | 11:00 | 32 | 21 | 65 | 30.37 | WSW | 2 | 0.00 |
| 15 | 01/29 | 10:00 | 28 | 20 | 72 | 30.37 | SSE | 5 | 0.00 |
| 16 | 01/29 | 09:00 | 23 | 19 | 85 | 30.38 | W | 1 | 0.00 |
| 17 | 01/29 | 08:00 | 19 | 16 | 88 | 30.38 | SSW | 0 | 0.00 |
| 18 | 01/29 | 07:00 | 18 | 15 | 90 | 30.39 | SW | 0 | 0.00 |
| 19 | 01/29 | 06:00 | 17 | 14 | 89 | 30.38 | SW | 0 | 0.00 |
| 20 | 01/29 | 05:00 | 18 | 15 | 88 | 30.38 | SW | 0 | 0.00 |
| 21 | 01/29 | 04:00 | 19 | 15 | 87 | 30.37 | WNW | 0 | 0.00 |
| 22 | 01/29 | 03:00 | 20 | 16 | 86 | 30.38 | SW | 1 | 0.00 |
| 23 | 01/29 | 02:00 | 21 | 16 | 83 | 30.38 | NNW | 0 | 0.00 |
| 24 | 01/29 | 01:00 | 23 | 17 | 80 | 30.36 | NNW | 0 | 0.00 |